createdAt,value
2019-02-04T00:01:47.862Z,102717.89
2019-02-04T00:06:49.546Z,102707.00
2019-02-04T00:11:51.105Z,102703.69
2019-02-04T00:16:53.047Z,102706.47
2019-02-04T00:21:54.658Z,102697.60
2019-02-04T00:26:56.440Z,102703.13
2019-02-04T00:31:58.198Z,102713.45
2019-02-04T00:37:01.627Z,102713.30
2019-02-04T00:42:03.293Z,102709.80
2019-02-04T00:47:04.964Z,102695.97
2019-02-04T00:52:06.747Z,102700.76
2019-02-04T00:57:08.335Z,102693.95
2019-02-04T01:02:09.973Z,102699.12
2019-02-04T01:07:11.636Z,102692.52
2019-02-04T01:12:13.258Z,102696.38
2019-02-04T01:17:14.805Z,102693.25
2019-02-04T01:22:16.380Z,102695.67
2019-02-04T01:27:17.960Z,102690.14
2019-02-04T01:32:21.015Z,102695.83
2019-02-04T01:37:22.990Z,102701.41
2019-02-04T01:42:24.551Z,102708.59
2019-02-04T01:47:26.185Z,102708.61
2019-02-04T01:52:28.081Z,102715.82
2019-02-04T01:57:29.744Z,102716.55
2019-02-04T02:02:31.331Z,102720.27
2019-02-04T02:07:32.987Z,102724.30
2019-02-04T02:12:34.523Z,102710.16
2019-02-04T02:17:36.764Z,102714.77
2019-02-04T02:22:38.643Z,102711.83
2019-02-04T02:27:40.174Z,102706.11
2019-02-04T02:32:41.839Z,102694.34
2019-02-04T02:37:43.439Z,102696.20
2019-02-04T02:42:45.431Z,102693.27
2019-02-04T02:47:48.587Z,102693.48
2019-02-04T02:52:50.142Z,102691.07
2019-02-04T02:57:51.768Z,102692.56
2019-02-04T03:02:53.353Z,102686.12
2019-02-04T03:07:55.374Z,102682.10
2019-02-04T03:12:57.064Z,102686.53
2019-02-04T03:17:59.327Z,102691.29
2019-02-04T03:23:00.889Z,102690.19
2019-02-04T03:28:02.396Z,102691.84
2019-02-04T03:33:04.452Z,102692.41
2019-02-04T03:38:11.065Z,102682.98
2019-02-04T03:43:12.606Z,102673.95
2019-02-04T03:48:14.214Z,102670.64
2019-02-04T03:53:15.747Z,102671.01
2019-02-04T03:58:17.309Z,102661.23
2019-02-04T04:03:18.926Z,102658.81
2019-02-04T04:08:20.464Z,102658.81
2019-02-04T04:13:22.021Z,102664.34
2019-02-04T04:18:23.628Z,102655.17
2019-02-04T04:23:26.857Z,102660.12
2019-02-04T04:28:28.390Z,102656.45
2019-02-04T04:33:30.325Z,102656.25
2019-02-04T04:38:31.892Z,102659.95
2019-02-04T04:43:33.471Z,102653.84
2019-02-04T04:48:35.014Z,102655.09
2019-02-04T04:53:36.567Z,102655.63
2019-02-04T04:58:40.694Z,102653.05
2019-02-04T05:03:41.879Z,102645.81
2019-02-04T05:08:43.647Z,102625.55
2019-02-04T05:13:45.521Z,102625.52
2019-02-04T05:18:47.882Z,102627.89
2019-02-04T05:23:49.452Z,102619.05
2019-02-04T05:28:51.061Z,102624.72
2019-02-04T05:33:52.986Z,102621.92
2019-02-04T05:38:54.865Z,102620.61
2019-02-04T05:43:56.399Z,102618.38
2019-02-04T05:48:57.953Z,102600.44
2019-02-04T05:53:59.483Z,102606.10
2019-02-04T05:59:01.579Z,102590.59
2019-02-04T06:04:03.282Z,102582.27
2019-02-04T06:09:06.496Z,102582.23
2019-02-04T06:14:08.074Z,102590.13
2019-02-04T06:19:10.033Z,102588.30
2019-02-04T06:24:12.681Z,102586.57
2019-02-04T06:29:14.227Z,102576.95
2019-02-04T06:34:15.915Z,102581.90
2019-02-04T06:39:17.498Z,102583.16
2019-02-04T06:44:19.137Z,102583.13
2019-02-04T06:49:20.747Z,102580.70
2019-02-04T06:54:22.667Z,102582.33
2019-02-04T06:59:24.507Z,102582.33
2019-02-04T07:04:26.382Z,102579.01
2019-02-04T07:09:27.942Z,102577.87
2019-02-04T07:14:29.924Z,102571.75
2019-02-04T07:19:31.452Z,102560.64
2019-02-04T07:24:42.457Z,102565.37
2019-02-04T07:29:36.554Z,102562.98
2019-02-04T07:34:38.158Z,102568.63
2019-02-04T07:39:39.744Z,102555.75
2019-02-04T07:44:41.484Z,102552.39
2019-02-04T07:49:43.072Z,102544.55
2019-02-04T07:54:44.656Z,102535.95
2019-02-04T07:59:46.208Z,102531.36
2019-02-04T08:04:47.871Z,102532.94
2019-02-04T08:09:49.801Z,102532.84
2019-02-04T08:14:51.456Z,102537.89
2019-02-04T08:19:53.202Z,102533.14
2019-02-04T08:24:54.706Z,102533.33
2019-02-04T08:29:56.514Z,102535.13
2019-02-04T08:34:58.275Z,102540.25
2019-02-04T08:40:00.051Z,102534.80
2019-02-04T08:45:01.951Z,102535.27
2019-02-04T08:50:04.663Z,102532.39
2019-02-04T08:55:07.058Z,102528.55
2019-02-04T09:00:11.033Z,102527.19
2019-02-04T09:05:14.933Z,102531.05
2019-02-04T09:10:22.418Z,102518.06
2019-02-04T09:15:25.312Z,102514.09
2019-02-04T09:20:26.920Z,102509.47
2019-02-04T09:25:29.700Z,102513.12
2019-02-04T09:30:31.998Z,102515.41
2019-02-04T09:35:33.567Z,102514.42
2019-02-04T09:40:39.344Z,102504.17
2019-02-04T09:45:42.709Z,102506.00
2019-02-04T09:50:47.393Z,102503.97
2019-02-04T09:55:49.025Z,102511.10
2019-02-04T10:00:53.434Z,102492.73
2019-02-04T10:05:55.034Z,102494.33
2019-02-04T10:10:56.629Z,102484.37
2019-02-04T10:15:58.342Z,102484.34
2019-02-04T10:21:00.644Z,102484.56
2019-02-04T10:26:02.437Z,102491.02
2019-02-04T10:31:04.027Z,102478.41
2019-02-04T10:36:05.642Z,102490.89
2019-02-04T10:41:07.203Z,102483.44
2019-02-04T10:46:09.016Z,102482.72
2019-02-04T10:51:10.702Z,102470.91
2019-02-04T10:56:12.336Z,102466.34
2019-02-04T11:01:14.942Z,102470.08
2019-02-04T11:06:17.949Z,102457.37
2019-02-04T11:11:19.996Z,102467.80
2019-02-04T11:16:21.555Z,102453.30
2019-02-04T11:21:24.468Z,102458.81
2019-02-04T11:26:26.053Z,102453.66
2019-02-04T11:31:27.612Z,102448.65
2019-02-04T11:36:29.159Z,102455.14
2019-02-04T11:41:31.138Z,102459.45
2019-02-04T11:46:36.193Z,102461.41
2019-02-04T11:51:37.845Z,102462.62
2019-02-04T11:56:39.391Z,102454.75
2019-02-04T12:01:40.949Z,102457.41
2019-02-04T12:06:42.537Z,102455.82
2019-02-04T12:11:44.185Z,102450.22
2019-02-04T12:16:45.885Z,102445.88
2019-02-04T12:21:47.467Z,102451.40
2019-02-04T12:26:51.098Z,102448.48
2019-02-04T12:31:52.659Z,102442.98
2019-02-04T12:36:54.373Z,102437.20
2019-02-04T12:41:57.149Z,102434.70
2019-02-04T12:46:58.747Z,102426.03
2019-02-04T12:52:00.341Z,102426.06
2019-02-04T12:57:02.926Z,102421.02
2019-02-04T13:02:05.685Z,102413.39
2019-02-04T13:07:07.594Z,102402.59
2019-02-04T13:12:11.220Z,102392.17
2019-02-04T13:17:13.031Z,102386.47
2019-02-04T13:22:16.373Z,102384.66
2019-02-04T13:27:17.933Z,102388.21
2019-02-04T13:32:19.759Z,102377.32
2019-02-04T13:37:21.363Z,102379.91
2019-02-04T13:42:22.941Z,102378.46
2019-02-04T13:47:24.725Z,102376.09
2019-02-04T13:52:26.348Z,102372.92
2019-02-04T13:57:29.020Z,102365.38
2019-02-04T14:02:32.679Z,102352.78
2019-02-04T14:07:34.253Z,102351.89
2019-02-04T14:12:35.845Z,102345.91
2019-02-04T14:17:37.420Z,102333.41
2019-02-04T14:22:39.217Z,102331.82
2019-02-04T14:27:43.362Z,102338.95
2019-02-04T14:32:45.092Z,102326.73
2019-02-04T14:37:47.063Z,102326.06
2019-02-04T14:42:51.974Z,102326.60
2019-02-04T14:48:06.094Z,102318.05
2019-02-04T14:53:51.602Z,102315.84
2019-02-04T14:59:10.037Z,102315.11
2019-02-04T15:04:29.521Z,102309.73
2019-02-04T15:09:53.692Z,102303.33
2019-02-04T15:15:25.470Z,102308.40
2019-02-04T15:20:55.567Z,102300.30
2019-02-04T15:26:28.971Z,102295.58
2019-02-04T15:32:29.376Z,102298.27
2019-02-04T15:37:53.470Z,102287.22
2019-02-04T15:43:16.680Z,102290.20
2019-02-04T15:48:22.961Z,102293.58
2019-02-04T15:53:24.991Z,102280.95
2019-02-04T15:58:26.659Z,102274.44
2019-02-04T16:03:28.292Z,102274.37
2019-02-04T16:08:29.944Z,102274.08
2019-02-04T16:13:33.411Z,102286.00
2019-02-04T16:18:35.819Z,102287.01
2019-02-04T16:23:37.379Z,102287.26
2019-02-04T16:28:38.992Z,102283.08
2019-02-04T16:33:40.736Z,102297.43
2019-02-04T16:38:42.461Z,102298.59
2019-02-04T16:43:44.478Z,102302.33
2019-02-04T16:48:46.552Z,102307.92
2019-02-04T16:53:48.424Z,102312.91
2019-02-04T16:58:50.014Z,102308.68
2019-02-04T17:03:52.791Z,102310.27
2019-02-04T17:08:56.259Z,102312.86
2019-02-04T17:13:58.253Z,102313.78
2019-02-04T17:18:59.925Z,102319.59
2019-02-04T17:24:02.885Z,102321.94
2019-02-04T17:29:04.494Z,102327.38
2019-02-04T17:34:06.152Z,102332.98
2019-02-04T17:39:07.780Z,102325.74
2019-02-04T17:44:10.151Z,102330.77
2019-02-04T17:49:11.901Z,102331.81
2019-02-04T17:54:13.822Z,102346.33
2019-02-04T17:59:15.819Z,102350.59
2019-02-04T18:04:17.338Z,102344.78
2019-02-04T18:09:19.342Z,102344.41
2019-02-04T18:14:21.012Z,102351.97
2019-02-04T18:19:22.675Z,102355.86
2019-02-04T18:24:25.437Z,102348.45
2019-02-04T18:29:27.677Z,102336.24
2019-02-04T18:34:29.655Z,102343.27
2019-02-04T18:39:31.324Z,102353.27
2019-02-04T18:44:33.477Z,102359.50
2019-02-04T18:49:35.123Z,102348.20
2019-02-04T18:54:38.920Z,102351.85
2019-02-04T18:59:40.471Z,102357.83
2019-02-04T19:04:42.263Z,102360.17
2019-02-04T19:09:44.004Z,102376.11
2019-02-04T19:14:46.252Z,102379.09
2019-02-04T19:19:48.610Z,102382.77
2019-02-04T19:24:50.146Z,102391.05
2019-02-04T19:29:51.719Z,102399.13
2019-02-04T19:34:53.332Z,102401.34
2019-02-04T19:39:56.201Z,102397.83
2019-02-04T19:44:58.160Z,102404.98
2019-02-04T19:50:00.735Z,102400.59
2019-02-04T19:55:02.926Z,102412.64
2019-02-04T20:00:07.844Z,102411.56
2019-02-04T20:05:10.357Z,102415.74
2019-02-04T20:10:14.451Z,102423.31
2019-02-04T20:15:21.882Z,102414.98
2019-02-04T20:20:23.788Z,102424.73
2019-02-04T20:25:26.960Z,102411.39
2019-02-04T20:30:30.805Z,102412.69
2019-02-04T20:35:32.586Z,102412.98
2019-02-04T20:40:34.402Z,102412.19
2019-02-04T20:45:36.658Z,102401.81
2019-02-04T20:50:39.843Z,102402.60
2019-02-04T20:55:44.538Z,102410.89
2019-02-04T21:00:46.282Z,102421.06
2019-02-04T21:05:48.283Z,102430.35
2019-02-04T21:10:50.071Z,102436.92
2019-02-04T21:15:52.404Z,102449.10
2019-02-04T21:20:56.141Z,102449.64
2019-02-04T21:25:57.870Z,102450.56
2019-02-04T21:30:59.467Z,102471.00
2019-02-04T21:36:01.185Z,102459.70
2019-02-04T21:41:04.527Z,102449.69
2019-02-04T21:46:06.732Z,102450.23
2019-02-04T21:51:08.482Z,102441.16
2019-02-04T21:56:10.393Z,102439.06
2019-02-04T22:01:11.989Z,102445.47
2019-02-04T22:06:13.557Z,102458.61
2019-02-04T22:11:15.288Z,102471.47
2019-02-04T22:16:18.954Z,102467.73
2019-02-04T22:21:20.993Z,102475.52
2019-02-04T22:26:22.617Z,102491.39
2019-02-04T22:31:24.421Z,102488.16
2019-02-04T22:36:25.979Z,102473.64
2019-02-04T22:41:27.612Z,102453.13
2019-02-04T22:46:30.042Z,102471.80
2019-02-04T22:51:31.774Z,102484.19
2019-02-04T22:56:34.412Z,102496.92
2019-02-04T23:01:48.093Z,102483.56
2019-02-04T23:06:51.733Z,102493.83
2019-02-04T23:11:53.291Z,102496.59
2019-02-04T23:16:55.008Z,102501.11
2019-02-04T23:21:56.559Z,102503.08
2019-02-04T23:26:58.199Z,102502.83
2019-02-04T23:31:59.772Z,102499.56
2019-02-04T23:37:01.457Z,102506.80
2019-02-04T23:42:03.026Z,102516.44
2019-02-04T23:47:05.363Z,102516.98
2019-02-04T23:52:08.767Z,102523.98
2019-02-04T23:57:10.303Z,102524.14
